sensor_id;sensor_type;location;lat;lon;timestamp;pressure;altitude;pressure_sealevel;temperature;humidity
64292;BME280;50628;51.008;13.658;2023-01-09T00:00:54;98263.03;;;3.87;100.00
64292;BME280;50628;51.008;13.658;2023-01-09T00:05:57;98258.56;;;4.00;100.00
64292;BME280;50628;51.008;13.658;2023-01-09T00:10:59;98248.38;;;4.10;100.00
64292;BME280;50628;51.008;13.658;2023-01-09T00:16:00;98244.38;;;4.17;100.00
64292;BME280;50628;51.008;13.658;2023-01-09T00:21:06;98238.66;;;4.02;100.00
64292;BME280;50628;51.008;13.658;2023-01-09T00:26:10;98223.81;;;4.06;100.00
64292;BME280;50628;51.008;13.658;2023-01-09T00:31:12;98226.00;;;4.10;100.00
64292;BME280;50628;51.008;13.658;2023-01-09T00:36:15;98217.97;;;4.04;100.00
64292;BME280;50628;51.008;13.658;2023-01-09T00:41:22;98220.03;;;4.10;100.00
64292;BME280;50628;51.008;13.658;2023-01-09T00:46:29;98203.78;;;4.09;100.00
64292;BME280;50628;51.008;13.658;2023-01-09T00:51:33;98198.84;;;4.18;100.00
64292;BME280;50628;51.008;13.658;2023-01-09T00:56:35;98195.84;;;4.01;100.00
64292;BME280;50628;51.008;13.658;2023-01-09T01:01:37;98186.38;;;4.02;100.00
64292;BME280;50628;51.008;13.658;2023-01-09T01:06:40;98180.88;;;3.95;100.00
64292;BME280;50628;51.008;13.658;2023-01-09T01:12:00;98170.38;;;3.87;100.00
64292;BME280;50628;51.008;13.658;2023-01-09T01:17:06;98171.53;;;3.83;100.00
64292;BME280;50628;51.008;13.658;2023-01-09T01:22:09;98168.25;;;3.92;100.00
64292;BME280;50628;51.008;13.658;2023-01-09T01:27:11;98166.63;;;3.80;100.00
64292;BME280;50628;51.008;13.658;2023-01-09T01:32:13;98152.84;;;3.81;100.00
64292;BME280;50628;51.008;13.658;2023-01-09T01:37:16;98145.44;;;3.87;100.00
64292;BME280;50628;51.008;13.658;2023-01-09T01:42:18;98142.59;;;4.02;100.00
64292;BME280;50628;51.008;13.658;2023-01-09T01:47:23;98132.75;;;4.07;100.00
64292;BME280;50628;51.008;13.658;2023-01-09T01:52:29;98126.13;;;4.25;100.00
64292;BME280;50628;51.008;13.658;2023-01-09T01:57:33;98122.03;;;4.23;100.00
64292;BME280;50628;51.008;13.658;2023-01-09T02:02:35;98112.63;;;4.33;100.00
64292;BME280;50628;51.008;13.658;2023-01-09T02:07:39;98100.34;;;4.37;100.00
64292;BME280;50628;51.008;13.658;2023-01-09T02:12:41;98091.97;;;4.65;100.00
64292;BME280;50628;51.008;13.658;2023-01-09T02:18:03;98078.09;;;4.57;100.00
64292;BME280;50628;51.008;13.658;2023-01-09T02:29:23;98062.13;;;4.63;100.00
64292;BME280;50628;51.008;13.658;2023-01-09T02:34:35;98046.59;;;4.74;100.00
64292;BME280;50628;51.008;13.658;2023-01-09T02:39:45;98038.06;;;4.52;100.00
64292;BME280;50628;51.008;13.658;2023-01-09T02:44:49;98041.16;;;4.46;100.00
64292;BME280;50628;51.008;13.658;2023-01-09T02:49:55;98043.28;;;4.62;100.00
64292;BME280;50628;51.008;13.658;2023-01-09T02:55:04;98044.47;;;4.58;100.00
64292;BME280;50628;51.008;13.658;2023-01-09T03:00:19;98046.81;;;4.61;100.00
64292;BME280;50628;51.008;13.658;2023-01-09T03:05:31;98044.78;;;4.65;100.00
64292;BME280;50628;51.008;13.658;2023-01-09T03:10:39;98043.44;;;4.70;100.00
64292;BME280;50628;51.008;13.658;2023-01-09T03:15:45;98035.69;;;4.91;100.00
64292;BME280;50628;51.008;13.658;2023-01-09T03:20:53;98043.72;;;4.67;100.00
64292;BME280;50628;51.008;13.658;2023-01-09T03:25:55;98048.75;;;4.78;100.00
64292;BME280;50628;51.008;13.658;2023-01-09T03:30:57;98045.91;;;4.72;100.00
64292;BME280;50628;51.008;13.658;2023-01-09T03:36:00;98030.97;;;4.75;100.00
64292;BME280;50628;51.008;13.658;2023-01-09T03:41:02;98020.94;;;4.72;100.00
64292;BME280;50628;51.008;13.658;2023-01-09T03:46:05;98017.81;;;4.69;100.00
64292;BME280;50628;51.008;13.658;2023-01-09T03:51:08;98011.91;;;4.88;100.00
64292;BME280;50628;51.008;13.658;2023-01-09T03:56:10;98011.13;;;4.97;100.00
64292;BME280;50628;51.008;13.658;2023-01-09T04:01:12;98000.13;;;4.95;100.00
64292;BME280;50628;51.008;13.658;2023-01-09T04:06:15;97990.66;;;5.05;100.00
64292;BME280;50628;51.008;13.658;2023-01-09T04:11:17;97986.63;;;5.12;100.00
64292;BME280;50628;51.008;13.658;2023-01-09T04:16:21;97982.13;;;5.05;100.00
64292;BME280;50628;51.008;13.658;2023-01-09T04:21:25;97979.81;;;5.02;100.00
64292;BME280;50628;51.008;13.658;2023-01-09T04:26:27;97980.03;;;4.89;100.00
64292;BME280;50628;51.008;13.658;2023-01-09T04:31:28;97979.22;;;4.88;100.00
64292;BME280;50628;51.008;13.658;2023-01-09T04:36:32;97986.00;;;4.89;100.00
64292;BME280;50628;51.008;13.658;2023-01-09T04:41:35;97975.94;;;4.86;100.00
64292;BME280;50628;51.008;13.658;2023-01-09T04:46:51;97975.84;;;4.97;100.00
64292;BME280;50628;51.008;13.658;2023-01-09T04:51:55;97977.19;;;4.92;100.00
64292;BME280;50628;51.008;13.658;2023-01-09T04:56:57;97974.06;;;4.88;100.00
64292;BME280;50628;51.008;13.658;2023-01-09T05:01:58;97971.34;;;4.90;100.00
64292;BME280;50628;51.008;13.658;2023-01-09T05:07:02;97974.31;;;4.85;100.00
64292;BME280;50628;51.008;13.658;2023-01-09T05:12:04;97966.91;;;5.02;100.00
64292;BME280;50628;51.008;13.658;2023-01-09T05:17:06;97968.09;;;4.88;100.00
64292;BME280;50628;51.008;13.658;2023-01-09T05:22:10;97955.16;;;4.78;100.00
64292;BME280;50628;51.008;13.658;2023-01-09T05:27:11;97955.97;;;4.78;100.00
64292;BME280;50628;51.008;13.658;2023-01-09T05:32:13;97945.66;;;4.78;100.00
64292;BME280;50628;51.008;13.658;2023-01-09T05:37:16;97943.28;;;4.87;100.00
64292;BME280;50628;51.008;13.658;2023-01-09T05:42:18;97943.34;;;4.75;100.00
64292;BME280;50628;51.008;13.658;2023-01-09T05:47:20;97953.16;;;4.82;100.00
64292;BME280;50628;51.008;13.658;2023-01-09T05:52:23;97950.41;;;4.73;100.00
64292;BME280;50628;51.008;13.658;2023-01-09T05:57:31;97940.13;;;4.83;100.00
64292;BME280;50628;51.008;13.658;2023-01-09T06:02:33;97935.09;;;4.72;100.00
64292;BME280;50628;51.008;13.658;2023-01-09T06:07:37;97929.88;;;5.12;100.00
64292;BME280;50628;51.008;13.658;2023-01-09T06:12:41;97926.50;;;5.51;100.00
64292;BME280;50628;51.008;13.658;2023-01-09T06:17:44;97922.97;;;5.71;100.00
64292;BME280;50628;51.008;13.658;2023-01-09T06:22:47;97924.31;;;5.75;100.00
64292;BME280;50628;51.008;13.658;2023-01-09T06:27:51;97921.47;;;5.78;100.00
64292;BME280;50628;51.008;13.658;2023-01-09T06:32:53;97922.25;;;5.89;100.00
64292;BME280;50628;51.008;13.658;2023-01-09T06:37:56;97934.75;;;5.93;100.00
64292;BME280;50628;51.008;13.658;2023-01-09T06:43:00;97925.94;;;5.86;100.00
64292;BME280;50628;51.008;13.658;2023-01-09T06:48:02;97925.41;;;5.92;100.00
64292;BME280;50628;51.008;13.658;2023-01-09T06:53:06;97945.09;;;6.13;100.00
64292;BME280;50628;51.008;13.658;2023-01-09T06:58:08;97951.19;;;6.12;100.00
64292;BME280;50628;51.008;13.658;2023-01-09T07:03:09;97939.22;;;6.20;100.00
64292;BME280;50628;51.008;13.658;2023-01-09T07:08:13;97944.81;;;6.16;100.00
64292;BME280;50628;51.008;13.658;2023-01-09T07:13:15;97946.59;;;5.96;100.00
64292;BME280;50628;51.008;13.658;2023-01-09T07:18:17;97947.13;;;6.09;100.00
64292;BME280;50628;51.008;13.658;2023-01-09T07:23:20;97950.13;;;6.04;100.00
64292;BME280;50628;51.008;13.658;2023-01-09T07:28:22;97942.13;;;5.69;100.00
64292;BME280;50628;51.008;13.658;2023-01-09T07:33:24;97950.69;;;5.50;100.00
64292;BME280;50628;51.008;13.658;2023-01-09T07:38:27;97949.06;;;5.29;100.00
64292;BME280;50628;51.008;13.658;2023-01-09T07:43:29;97952.16;;;5.23;100.00
64292;BME280;50628;51.008;13.658;2023-01-09T07:48:31;97967.88;;;5.10;100.00
64292;BME280;50628;51.008;13.658;2023-01-09T07:53:35;97968.75;;;4.80;100.00
64292;BME280;50628;51.008;13.658;2023-01-09T07:58:37;97979.41;;;4.96;100.00
64292;BME280;50628;51.008;13.658;2023-01-09T08:03:38;97982.84;;;5.36;100.00
64292;BME280;50628;51.008;13.658;2023-01-09T08:08:42;97976.22;;;5.72;100.00
64292;BME280;50628;51.008;13.658;2023-01-09T08:13:44;97971.19;;;5.90;100.00
64292;BME280;50628;51.008;13.658;2023-01-09T08:18:45;97973.59;;;6.31;100.00
64292;BME280;50628;51.008;13.658;2023-01-09T08:23:49;97976.22;;;6.58;100.00
64292;BME280;50628;51.008;13.658;2023-01-09T08:28:51;97975.75;;;6.72;100.00
64292;BME280;50628;51.008;13.658;2023-01-09T08:33:53;97979.03;;;7.02;100.00
64292;BME280;50628;51.008;13.658;2023-01-09T08:38:56;97992.03;;;7.10;100.00
64292;BME280;50628;51.008;13.658;2023-01-09T08:43:59;98003.38;;;7.27;100.00
64292;BME280;50628;51.008;13.658;2023-01-09T08:49:18;98010.22;;;7.28;100.00
64292;BME280;50628;51.008;13.658;2023-01-09T08:54:22;98020.03;;;7.43;100.00
64292;BME280;50628;51.008;13.658;2023-01-09T08:59:23;98020.00;;;7.52;100.00
64292;BME280;50628;51.008;13.658;2023-01-09T09:04:25;98029.91;;;7.57;100.00
64292;BME280;50628;51.008;13.658;2023-01-09T09:09:28;98035.91;;;7.57;100.00
64292;BME280;50628;51.008;13.658;2023-01-09T09:14:30;98037.25;;;7.62;100.00
64292;BME280;50628;51.008;13.658;2023-01-09T09:19:50;98046.44;;;7.74;100.00
64292;BME280;50628;51.008;13.658;2023-01-09T09:24:53;98063.66;;;7.83;100.00
64292;BME280;50628;51.008;13.658;2023-01-09T09:29:55;98064.34;;;7.85;100.00
64292;BME280;50628;51.008;13.658;2023-01-09T09:34:56;98050.50;;;7.94;100.00
64292;BME280;50628;51.008;13.658;2023-01-09T09:40:00;98063.97;;;7.98;100.00
64292;BME280;50628;51.008;13.658;2023-01-09T09:45:12;98067.97;;;8.10;100.00
64292;BME280;50628;51.008;13.658;2023-01-09T09:50:27;98063.16;;;8.15;100.00
64292;BME280;50628;51.008;13.658;2023-01-09T09:55:35;98072.09;;;8.21;100.00
64292;BME280;50628;51.008;13.658;2023-01-09T10:00:38;98066.38;;;8.35;100.00
64292;BME280;50628;51.008;13.658;2023-01-09T10:05:41;98084.13;;;8.40;100.00
64292;BME280;50628;51.008;13.658;2023-01-09T10:10:51;98079.44;;;8.43;100.00
64292;BME280;50628;51.008;13.658;2023-01-09T10:15:58;98085.50;;;8.52;100.00
64292;BME280;50628;51.008;13.658;2023-01-09T10:21:05;98099.41;;;8.51;100.00
64292;BME280;50628;51.008;13.658;2023-01-09T10:26:17;98096.00;;;8.51;100.00
64292;BME280;50628;51.008;13.658;2023-01-09T10:31:28;98107.56;;;8.38;100.00
64292;BME280;50628;51.008;13.658;2023-01-09T10:36:47;98134.28;;;8.39;100.00
64292;BME280;50628;51.008;13.658;2023-01-09T10:41:59;98140.00;;;8.24;100.00
64292;BME280;50628;51.008;13.658;2023-01-09T10:47:05;98166.06;;;7.77;100.00
64292;BME280;50628;51.008;13.658;2023-01-09T10:52:13;98167.78;;;7.31;100.00
64292;BME280;50628;51.008;13.658;2023-01-09T10:57:29;98166.66;;;7.44;100.00
64292;BME280;50628;51.008;13.658;2023-01-09T11:02:34;98181.19;;;7.54;100.00
64292;BME280;50628;51.008;13.658;2023-01-09T11:07:38;98178.28;;;7.57;100.00
64292;BME280;50628;51.008;13.658;2023-01-09T11:12:44;98177.50;;;7.57;100.00
64292;BME280;50628;51.008;13.658;2023-01-09T11:17:48;98175.09;;;7.73;100.00
64292;BME280;50628;51.008;13.658;2023-01-09T11:22:53;98178.78;;;7.71;100.00
64292;BME280;50628;51.008;13.658;2023-01-09T11:28:04;98191.53;;;7.82;100.00
64292;BME280;50628;51.008;13.658;2023-01-09T11:33:13;98178.59;;;7.82;100.00
64292;BME280;50628;51.008;13.658;2023-01-09T11:38:16;98186.00;;;7.77;100.00
64292;BME280;50628;51.008;13.658;2023-01-09T11:43:23;98186.84;;;7.68;100.00
64292;BME280;50628;51.008;13.658;2023-01-09T11:48:38;98179.50;;;7.63;100.00
64292;BME280;50628;51.008;13.658;2023-01-09T11:53:45;98182.84;;;7.73;100.00
64292;BME280;50628;51.008;13.658;2023-01-09T11:58:51;98173.16;;;8.03;100.00
64292;BME280;50628;51.008;13.658;2023-01-09T12:04:10;98179.84;;;8.23;100.00
64292;BME280;50628;51.008;13.658;2023-01-09T12:09:19;98172.97;;;8.32;100.00
64292;BME280;50628;51.008;13.658;2023-01-09T12:14:43;98190.13;;;8.15;100.00
64292;BME280;50628;51.008;13.658;2023-01-09T12:20:00;98190.00;;;8.17;100.00
64292;BME280;50628;51.008;13.658;2023-01-09T12:25:12;98209.06;;;8.61;100.00
64292;BME280;50628;51.008;13.658;2023-01-09T12:30:40;98209.72;;;8.81;100.00
64292;BME280;50628;51.008;13.658;2023-01-09T12:35:52;98210.13;;;9.13;100.00
64292;BME280;50628;51.008;13.658;2023-01-09T12:41:32;98216.38;;;8.84;100.00
64292;BME280;50628;51.008;13.658;2023-01-09T12:46:46;98210.47;;;8.56;100.00
64292;BME280;50628;51.008;13.658;2023-01-09T12:51:56;98221.25;;;8.33;100.00
64292;BME280;50628;51.008;13.658;2023-01-09T12:57:05;98208.72;;;8.29;100.00
64292;BME280;50628;51.008;13.658;2023-01-09T13:02:17;98211.97;;;8.58;100.00
64292;BME280;50628;51.008;13.658;2023-01-09T13:07:23;98231.94;;;8.84;100.00
64292;BME280;50628;51.008;13.658;2023-01-09T13:12:32;98243.75;;;8.60;100.00
64292;BME280;50628;51.008;13.658;2023-01-09T13:17:41;98245.38;;;8.61;100.00
64292;BME280;50628;51.008;13.658;2023-01-09T13:22:44;98234.41;;;8.50;100.00
64292;BME280;50628;51.008;13.658;2023-01-09T13:27:55;98238.56;;;8.42;100.00
64292;BME280;50628;51.008;13.658;2023-01-09T13:33:08;98234.88;;;8.35;100.00
64292;BME280;50628;51.008;13.658;2023-01-09T13:38:16;98241.41;;;8.21;100.00
64292;BME280;50628;51.008;13.658;2023-01-09T13:43:19;98248.56;;;8.28;100.00
64292;BME280;50628;51.008;13.658;2023-01-09T13:48:39;98262.59;;;8.35;100.00
64292;BME280;50628;51.008;13.658;2023-01-09T13:53:43;98276.94;;;8.29;100.00
64292;BME280;50628;51.008;13.658;2023-01-09T13:59:22;98293.06;;;8.23;100.00
64292;BME280;50628;51.008;13.658;2023-01-09T14:04:43;98297.44;;;8.22;100.00
64292;BME280;50628;51.008;13.658;2023-01-09T14:09:47;98300.16;;;8.21;100.00
64292;BME280;50628;51.008;13.658;2023-01-09T14:14:51;98301.47;;;8.35;100.00
64292;BME280;50628;51.008;13.658;2023-01-09T14:19:57;98312.28;;;8.30;100.00
64292;BME280;50628;51.008;13.658;2023-01-09T14:25:03;98305.25;;;8.13;100.00
64292;BME280;50628;51.008;13.658;2023-01-09T14:30:30;98315.63;;;8.13;100.00
64292;BME280;50628;51.008;13.658;2023-01-09T14:35:43;98326.25;;;8.19;100.00
64292;BME280;50628;51.008;13.658;2023-01-09T14:40:49;98337.28;;;8.21;100.00
64292;BME280;50628;51.008;13.658;2023-01-09T14:45:57;98337.47;;;8.10;100.00
64292;BME280;50628;51.008;13.658;2023-01-09T14:51:05;98335.06;;;7.99;100.00
64292;BME280;50628;51.008;13.658;2023-01-09T14:56:23;98338.78;;;7.87;100.00
64292;BME280;50628;51.008;13.658;2023-01-09T15:01:25;98343.69;;;7.80;100.00
64292;BME280;50628;51.008;13.658;2023-01-09T15:06:35;98350.09;;;7.76;100.00
64292;BME280;50628;51.008;13.658;2023-01-09T15:11:38;98354.19;;;7.78;100.00
64292;BME280;50628;51.008;13.658;2023-01-09T15:16:43;98353.63;;;7.85;100.00
64292;BME280;50628;51.008;13.658;2023-01-09T15:21:57;98364.81;;;7.75;100.00
64292;BME280;50628;51.008;13.658;2023-01-09T15:27:02;98377.38;;;7.70;100.00
64292;BME280;50628;51.008;13.658;2023-01-09T15:32:06;98370.84;;;7.66;100.00
64292;BME280;50628;51.008;13.658;2023-01-09T15:37:22;98370.88;;;7.56;100.00
64292;BME280;50628;51.008;13.658;2023-01-09T15:42:27;98371.28;;;7.52;100.00
64292;BME280;50628;51.008;13.658;2023-01-09T15:47:47;98379.84;;;7.43;100.00
64292;BME280;50628;51.008;13.658;2023-01-09T15:52:52;98386.13;;;7.40;100.00
64292;BME280;50628;51.008;13.658;2023-01-09T15:57:54;98397.56;;;7.37;100.00
64292;BME280;50628;51.008;13.658;2023-01-09T16:02:56;98396.34;;;7.32;100.00
64292;BME280;50628;51.008;13.658;2023-01-09T16:08:26;98403.41;;;7.20;100.00
64292;BME280;50628;51.008;13.658;2023-01-09T16:13:32;98409.53;;;7.00;100.00
64292;BME280;50628;51.008;13.658;2023-01-09T16:18:38;98404.50;;;6.98;100.00
64292;BME280;50628;51.008;13.658;2023-01-09T16:23:50;98410.19;;;6.92;100.00
64292;BME280;50628;51.008;13.658;2023-01-09T16:28:53;98418.59;;;6.84;100.00
64292;BME280;50628;51.008;13.658;2023-01-09T16:34:01;98419.03;;;6.89;100.00
64292;BME280;50628;51.008;13.658;2023-01-09T16:39:12;98413.31;;;6.86;100.00
64292;BME280;50628;51.008;13.658;2023-01-09T16:44:14;98432.84;;;6.69;100.00
64292;BME280;50628;51.008;13.658;2023-01-09T16:49:20;98436.66;;;6.65;100.00
64292;BME280;50628;51.008;13.658;2023-01-09T16:54:24;98442.84;;;6.53;100.00
64292;BME280;50628;51.008;13.658;2023-01-09T16:59:26;98451.41;;;6.43;100.00
64292;BME280;50628;51.008;13.658;2023-01-09T17:04:28;98450.81;;;6.30;100.00
64292;BME280;50628;51.008;13.658;2023-01-09T17:09:31;98456.47;;;6.24;100.00
64292;BME280;50628;51.008;13.658;2023-01-09T17:14:34;98457.72;;;6.09;100.00
64292;BME280;50628;51.008;13.658;2023-01-09T17:19:35;98470.72;;;5.97;100.00
64292;BME280;50628;51.008;13.658;2023-01-09T17:24:39;98472.72;;;5.94;100.00
64292;BME280;50628;51.008;13.658;2023-01-09T17:30:13;98474.03;;;5.88;100.00
64292;BME280;50628;51.008;13.658;2023-01-09T17:35:15;98469.47;;;5.80;100.00
64292;BME280;50628;51.008;13.658;2023-01-09T17:40:20;98480.53;;;5.71;100.00
64292;BME280;50628;51.008;13.658;2023-01-09T17:45:23;98486.69;;;5.59;100.00
64292;BME280;50628;51.008;13.658;2023-01-09T17:50:25;98501.69;;;5.65;100.00
64292;BME280;50628;51.008;13.658;2023-01-09T17:55:32;98506.28;;;5.61;100.00
64292;BME280;50628;51.008;13.658;2023-01-09T18:00:35;98512.19;;;5.52;100.00
64292;BME280;50628;51.008;13.658;2023-01-09T18:05:37;98520.66;;;5.43;100.00
64292;BME280;50628;51.008;13.658;2023-01-09T18:10:40;98523.25;;;5.32;100.00
64292;BME280;50628;51.008;13.658;2023-01-09T18:15:43;98521.16;;;5.26;100.00
64292;BME280;50628;51.008;13.658;2023-01-09T18:20:46;98522.91;;;5.25;100.00
64292;BME280;50628;51.008;13.658;2023-01-09T18:25:49;98521.84;;;5.28;100.00
64292;BME280;50628;51.008;13.658;2023-01-09T18:30:51;98520.22;;;5.27;100.00
64292;BME280;50628;51.008;13.658;2023-01-09T18:35:53;98530.44;;;5.17;100.00
64292;BME280;50628;51.008;13.658;2023-01-09T18:40:58;98534.28;;;5.23;100.00
64292;BME280;50628;51.008;13.658;2023-01-09T18:46:04;98531.47;;;5.26;100.00
64292;BME280;50628;51.008;13.658;2023-01-09T18:51:07;98527.84;;;5.17;100.00
64292;BME280;50628;51.008;13.658;2023-01-09T18:56:10;98521.53;;;5.10;100.00
64292;BME280;50628;51.008;13.658;2023-01-09T19:01:12;98526.91;;;5.29;100.00
64292;BME280;50628;51.008;13.658;2023-01-09T19:06:14;98529.50;;;5.61;100.00
64292;BME280;50628;51.008;13.658;2023-01-09T19:11:17;98533.00;;;5.72;100.00
64292;BME280;50628;51.008;13.658;2023-01-09T19:16:19;98546.13;;;5.80;100.00
64292;BME280;50628;51.008;13.658;2023-01-09T19:21:22;98549.69;;;5.68;100.00
64292;BME280;50628;51.008;13.658;2023-01-09T19:26:27;98568.25;;;5.50;100.00
64292;BME280;50628;51.008;13.658;2023-01-09T19:31:30;98585.41;;;5.40;100.00
64292;BME280;50628;51.008;13.658;2023-01-09T19:36:33;98593.38;;;5.37;100.00
64292;BME280;50628;51.008;13.658;2023-01-09T19:41:36;98593.34;;;5.48;100.00
64292;BME280;50628;51.008;13.658;2023-01-09T19:46:38;98591.34;;;5.52;100.00
64292;BME280;50628;51.008;13.658;2023-01-09T19:51:40;98605.78;;;5.54;100.00
64292;BME280;50628;51.008;13.658;2023-01-09T19:56:44;98614.50;;;5.42;100.00
64292;BME280;50628;51.008;13.658;2023-01-09T20:01:46;98633.34;;;5.31;100.00
64292;BME280;50628;51.008;13.658;2023-01-09T20:06:48;98626.09;;;5.36;100.00
64292;BME280;50628;51.008;13.658;2023-01-09T20:11:53;98653.91;;;5.33;100.00
64292;BME280;50628;51.008;13.658;2023-01-09T20:16:55;98663.38;;;5.43;100.00
64292;BME280;50628;51.008;13.658;2023-01-09T20:22:00;98662.09;;;5.60;100.00
64292;BME280;50628;51.008;13.658;2023-01-09T20:27:03;98670.28;;;5.77;100.00
64292;BME280;50628;51.008;13.658;2023-01-09T20:32:05;98678.50;;;5.71;100.00
64292;BME280;50628;51.008;13.658;2023-01-09T20:37:08;98683.31;;;5.75;100.00
64292;BME280;50628;51.008;13.658;2023-01-09T20:42:11;98697.88;;;5.88;100.00
64292;BME280;50628;51.008;13.658;2023-01-09T20:47:13;98703.75;;;5.90;100.00
64292;BME280;50628;51.008;13.658;2023-01-09T20:52:15;98705.75;;;5.97;100.00
64292;BME280;50628;51.008;13.658;2023-01-09T20:57:18;98702.34;;;5.97;100.00
64292;BME280;50628;51.008;13.658;2023-01-09T21:02:20;98702.56;;;5.94;100.00
64292;BME280;50628;51.008;13.658;2023-01-09T21:07:23;98712.44;;;6.00;100.00
64292;BME280;50628;51.008;13.658;2023-01-09T21:12:26;98714.66;;;6.04;100.00
64292;BME280;50628;51.008;13.658;2023-01-09T21:17:35;98721.94;;;5.99;100.00
64292;BME280;50628;51.008;13.658;2023-01-09T21:22:37;98731.44;;;5.99;100.00
64292;BME280;50628;51.008;13.658;2023-01-09T21:27:42;98734.28;;;5.96;100.00
64292;BME280;50628;51.008;13.658;2023-01-09T21:32:45;98735.28;;;5.82;100.00
64292;BME280;50628;51.008;13.658;2023-01-09T21:37:47;98746.81;;;5.89;100.00
64292;BME280;50628;51.008;13.658;2023-01-09T21:42:50;98771.38;;;6.06;100.00
64292;BME280;50628;51.008;13.658;2023-01-09T21:48:10;98786.16;;;6.04;100.00
64292;BME280;50628;51.008;13.658;2023-01-09T21:53:12;98792.13;;;5.93;100.00
64292;BME280;50628;51.008;13.658;2023-01-09T21:58:15;98808.22;;;5.97;100.00
64292;BME280;50628;51.008;13.658;2023-01-09T22:03:17;98801.56;;;6.05;100.00
64292;BME280;50628;51.008;13.658;2023-01-09T22:08:21;98801.19;;;5.99;100.00
64292;BME280;50628;51.008;13.658;2023-01-09T22:13:24;98803.41;;;6.26;100.00
64292;BME280;50628;51.008;13.658;2023-01-09T22:18:26;98797.06;;;6.19;100.00
64292;BME280;50628;51.008;13.658;2023-01-09T22:23:28;98793.78;;;6.17;100.00
64292;BME280;50628;51.008;13.658;2023-01-09T22:28:31;98779.91;;;6.29;100.00
64292;BME280;50628;51.008;13.658;2023-01-09T22:33:33;98780.16;;;6.15;100.00
64292;BME280;50628;51.008;13.658;2023-01-09T22:38:35;98794.25;;;5.99;100.00
64292;BME280;50628;51.008;13.658;2023-01-09T22:43:38;98806.81;;;5.93;100.00
64292;BME280;50628;51.008;13.658;2023-01-09T22:48:40;98817.13;;;5.93;100.00
64292;BME280;50628;51.008;13.658;2023-01-09T22:53:42;98827.91;;;5.86;100.00
64292;BME280;50628;51.008;13.658;2023-01-09T22:58:50;98826.03;;;5.89;100.00
64292;BME280;50628;51.008;13.658;2023-01-09T23:03:52;98842.69;;;5.84;100.00
64292;BME280;50628;51.008;13.658;2023-01-09T23:08:54;98850.34;;;5.75;100.00
64292;BME280;50628;51.008;13.658;2023-01-09T23:13:57;98855.03;;;5.81;100.00
64292;BME280;50628;51.008;13.658;2023-01-09T23:18:59;98868.19;;;5.78;100.00
64292;BME280;50628;51.008;13.658;2023-01-09T23:24:00;98865.81;;;5.75;100.00
64292;BME280;50628;51.008;13.658;2023-01-09T23:29:04;98864.53;;;5.80;100.00
64292;BME280;50628;51.008;13.658;2023-01-09T23:34:06;98888.38;;;5.84;100.00
64292;BME280;50628;51.008;13.658;2023-01-09T23:39:08;98891.91;;;5.83;100.00
64292;BME280;50628;51.008;13.658;2023-01-09T23:44:11;98900.56;;;5.82;100.00
64292;BME280;50628;51.008;13.658;2023-01-09T23:49:13;98910.69;;;5.85;100.00
64292;BME280;50628;51.008;13.658;2023-01-09T23:54:15;98930.47;;;5.73;100.00
64292;BME280;50628;51.008;13.658;2023-01-09T23:59:18;98925.91;;;5.77;100.00
